SAS27 ENBO-ENSB
Flight info
| Callsign | SAS27 |
|---|---|
| Flight time | 1h 53m |
| Altitude | 38000 |
| Route | MUGIF DCT ELRES DCT ADV |
| Aircraft | B736/M-SDE2E3FGHIRWXY/LB1 |
Departure
| Time | 2026-04-24 22:13 |
|---|---|
| Airport | Bodø Airport (ENBO) |
Arrival
| Time | 2026-04-25 00:06 |
|---|---|
| Airport | Svalbard Airport, Longyear (ENSB) |
| Time | Latitude | Longitude | Altitude | Speed | Heading |
|---|---|---|---|---|---|
| 2026-04-24 21:32 | 67.27193 | 14.36921 | 50 ft | 0 kts | 291° |
| 2026-04-24 22:03 | 67.27191 | 14.36929 | 50 ft | 2 kts | 292° |
| 2026-04-24 22:03 | 67.27186 | 14.36965 | 50 ft | 2 kts | 291° |
| 2026-04-24 22:03 | 67.27180 | 14.37001 | 51 ft | 2 kts | 291° |
| 2026-04-24 22:04 | 67.27174 | 14.37037 | 51 ft | 2 kts | 291° |
| 2026-04-24 22:04 | 67.27170 | 14.37064 | 51 ft | 0 kts | 291° |
| 2026-04-24 22:04 | 67.27167 | 14.37095 | 51 ft | 2 kts | 264° |
| 2026-04-24 22:04 | 67.27171 | 14.37130 | 51 ft | 2 kts | 238° |
| 2026-04-24 22:05 | 67.27181 | 14.37156 | 52 ft | 2 kts | 210° |
| 2026-04-24 22:05 | 67.27193 | 14.37167 | 52 ft | 2 kts | 181° |
| 2026-04-24 22:05 | 67.27202 | 14.37166 | 52 ft | 1 kts | 163° |
| 2026-04-24 22:05 | 67.27206 | 14.37162 | 52 ft | 0 kts | 166° |
| 2026-04-24 22:08 | 67.27205 | 14.37163 | 52 ft | 1 kts | 166° |
| 2026-04-24 22:08 | 67.27151 | 14.37195 | 52 ft | 14 kts | 170° |
| 2026-04-24 22:08 | 67.27081 | 14.36948 | 50 ft | 21 kts | 262° |
| 2026-04-24 22:08 | 67.27055 | 14.36505 | 47 ft | 28 kts | 259° |
| 2026-04-24 22:09 | 67.27015 | 14.35951 | 46 ft | 33 kts | 256° |
| 2026-04-24 22:09 | 67.26968 | 14.35308 | 44 ft | 39 kts | 253° |
| 2026-04-24 22:09 | 67.26904 | 14.34570 | 38 ft | 44 kts | 257° |
| 2026-04-24 22:09 | 67.26830 | 14.33779 | 30 ft | 46 kts | 256° |
| 2026-04-24 22:10 | 67.26714 | 14.33399 | 27 ft | 15 kts | 160° |
| 2026-04-24 22:10 | 67.26674 | 14.33567 | 28 ft | 11 kts | 81° |
| 2026-04-24 22:10 | 67.26682 | 14.33660 | 29 ft | 0 kts | 73° |
| 2026-04-24 22:12 | 67.26683 | 14.33666 | 29 ft | 3 kts | 72° |
| 2026-04-24 22:12 | 67.26740 | 14.34300 | 36 ft | 71 kts | 77° |
| 2026-04-24 22:12 | 67.26885 | 14.36100 | 48 ft | 132 kts | 78° |
| 2026-04-24 22:12 | 67.27086 | 14.38783 | 262 ft | 162 kts | 75° |
| 2026-04-24 22:13 | 67.27286 | 14.41532 | 1076 ft | 153 kts | 72° |
| 2026-04-24 22:13 | 67.27528 | 14.44107 | 1768 ft | 151 kts | 68° |
| 2026-04-24 22:13 | 67.27661 | 14.47016 | 2041 ft | 177 kts | 97° |
| 2026-04-24 22:13 | 67.27273 | 14.50150 | 2432 ft | 191 kts | 97° |
| 2026-04-24 22:14 | 67.27402 | 14.53514 | 2753 ft | 196 kts | 55° |
| 2026-04-24 22:14 | 67.28447 | 14.55694 | 3124 ft | 202 kts | 13° |
| 2026-04-24 22:14 | 67.29836 | 14.56404 | 3686 ft | 209 kts | 12° |
| 2026-04-24 22:14 | 67.31179 | 14.57779 | 4353 ft | 213 kts | 27° |
| 2026-04-24 22:15 | 67.32401 | 14.59993 | 5044 ft | 216 kts | 34° |
| 2026-04-24 22:15 | 67.33567 | 14.62378 | 5722 ft | 218 kts | 35° |
| 2026-04-24 22:15 | 67.34751 | 14.64792 | 6405 ft | 220 kts | 34° |
| 2026-04-24 22:15 | 67.35960 | 14.67217 | 7110 ft | 221 kts | 35° |
| 2026-04-24 22:16 | 67.37167 | 14.69617 | 7787 ft | 224 kts | 34° |
| 2026-04-24 22:16 | 67.38491 | 14.71735 | 8454 ft | 225 kts | 19° |
| 2026-04-24 22:16 | 67.40030 | 14.72247 | 9031 ft | 231 kts | 353° |
| 2026-04-24 22:16 | 67.41623 | 14.71096 | 9478 ft | 245 kts | 342° |
| 2026-04-24 22:17 | 67.43264 | 14.69679 | 9911 ft | 259 kts | 343° |
| 2026-04-24 22:17 | 67.45031 | 14.68249 | 10344 ft | 273 kts | 343° |
| 2026-04-24 22:17 | 67.46893 | 14.66779 | 10775 ft | 288 kts | 343° |
| 2026-04-24 22:17 | 67.48837 | 14.65242 | 11379 ft | 296 kts | 343° |
| 2026-04-24 22:18 | 67.50798 | 14.63679 | 12110 ft | 300 kts | 343° |
| 2026-04-24 22:18 | 67.52791 | 14.62083 | 12868 ft | 303 kts | 343° |
| 2026-04-24 22:18 | 67.54819 | 14.60453 | 13617 ft | 307 kts | 342° |
| 2026-04-24 22:18 | 67.56852 | 14.58816 | 14363 ft | 311 kts | 342° |
| 2026-04-24 22:19 | 67.58926 | 14.57143 | 15140 ft | 314 kts | 342° |
| 2026-04-24 22:19 | 67.61011 | 14.55459 | 15876 ft | 317 kts | 342° |
| 2026-04-24 22:19 | 67.63117 | 14.53755 | 16596 ft | 321 kts | 342° |
| 2026-04-24 22:19 | 67.65221 | 14.52050 | 17322 ft | 324 kts | 342° |
| 2026-04-24 22:20 | 67.67381 | 14.50296 | 18040 ft | 328 kts | 342° |
| 2026-04-24 22:20 | 67.69563 | 14.48521 | 18732 ft | 331 kts | 342° |
| 2026-04-24 22:20 | 67.71787 | 14.46969 | 19361 ft | 337 kts | 349° |
| 2026-04-24 22:20 | 67.74128 | 14.46564 | 19996 ft | 343 kts | 1° |
| 2026-04-24 22:21 | 67.76498 | 14.47540 | 20637 ft | 349 kts | 13° |
| 2026-04-24 22:21 | 67.78784 | 14.49893 | 21245 ft | 356 kts | 25° |
| 2026-04-24 22:21 | 67.80886 | 14.53485 | 21798 ft | 364 kts | 34° |
| 2026-04-24 22:21 | 67.82866 | 14.57585 | 22371 ft | 368 kts | 36° |
| 2026-04-24 22:22 | 67.84875 | 14.61834 | 22906 ft | 372 kts | 36° |
| 2026-04-24 22:22 | 67.86906 | 14.66077 | 23443 ft | 375 kts | 35° |
| 2026-04-24 22:22 | 67.88959 | 14.70305 | 23960 ft | 378 kts | 35° |
| 2026-04-24 22:22 | 67.90520 | 14.73490 | 24317 ft | 381 kts | 35° |
| 2026-04-24 22:23 | 67.92627 | 14.77768 | 24796 ft | 385 kts | 34° |
| 2026-04-24 22:23 | 67.94742 | 14.82051 | 25235 ft | 388 kts | 34° |
| 2026-04-24 22:23 | 67.96915 | 14.86450 | 25636 ft | 392 kts | 34° |
| 2026-04-24 22:23 | 67.99075 | 14.90819 | 26027 ft | 395 kts | 34° |
| 2026-04-24 22:24 | 68.01275 | 14.95281 | 26398 ft | 399 kts | 34° |
| 2026-04-24 22:24 | 68.03481 | 14.99761 | 26762 ft | 402 kts | 34° |
| 2026-04-24 22:24 | 68.05695 | 15.04271 | 27127 ft | 405 kts | 34° |
| 2026-04-24 22:24 | 68.06699 | 15.06318 | 27271 ft | 407 kts | 34° |
| 2026-04-24 22:25 | 68.08503 | 15.10003 | 27541 ft | 409 kts | 34° |
| 2026-04-24 22:25 | 68.10758 | 15.14620 | 27866 ft | 413 kts | 34° |
| 2026-04-24 22:25 | 68.13072 | 15.19370 | 28211 ft | 416 kts | 34° |
| 2026-04-24 22:25 | 68.15367 | 15.24095 | 28526 ft | 419 kts | 34° |
| 2026-04-24 22:26 | 68.17690 | 15.28823 | 28841 ft | 422 kts | 32° |
| 2026-04-24 22:26 | 68.20130 | 15.33179 | 29135 ft | 422 kts | 26° |
| 2026-04-24 22:26 | 68.22781 | 15.36558 | 29447 ft | 420 kts | 16° |
| 2026-04-24 22:26 | 68.25555 | 15.38719 | 29729 ft | 419 kts | 9° |
| 2026-04-24 22:27 | 68.28417 | 15.40242 | 30028 ft | 420 kts | 6° |
| 2026-04-24 22:27 | 68.31309 | 15.41460 | 30279 ft | 422 kts | 4° |
| 2026-04-24 22:27 | 68.34198 | 15.42557 | 30527 ft | 425 kts | 4° |
| 2026-04-24 22:27 | 68.37151 | 15.43665 | 30794 ft | 428 kts | 4° |
| 2026-04-24 22:28 | 68.40099 | 15.44802 | 31037 ft | 431 kts | 4° |
| 2026-04-24 22:28 | 68.43021 | 15.45970 | 31282 ft | 434 kts | 5° |
| 2026-04-24 22:28 | 68.46036 | 15.47210 | 31522 ft | 436 kts | 5° |
| 2026-04-24 22:28 | 68.49029 | 15.48470 | 31768 ft | 438 kts | 5° |
| 2026-04-24 22:29 | 68.55056 | 15.51060 | 32251 ft | 442 kts | 5° |
| 2026-04-24 22:29 | 68.58075 | 15.52373 | 32481 ft | 444 kts | 5° |
| 2026-04-24 22:29 | 68.61129 | 15.53708 | 32707 ft | 445 kts | 5° |
| 2026-04-24 22:30 | 68.64137 | 15.55031 | 33047 ft | 444 kts | 5° |
| 2026-04-24 22:30 | 68.67193 | 15.56381 | 33440 ft | 442 kts | 5° |
| 2026-04-24 22:30 | 68.70196 | 15.57712 | 33788 ft | 441 kts | 5° |
| 2026-04-24 22:30 | 68.73190 | 15.59041 | 34110 ft | 441 kts | 5° |
| 2026-04-24 22:31 | 68.76189 | 15.60374 | 34427 ft | 440 kts | 5° |
| 2026-04-24 22:31 | 68.79198 | 15.61716 | 34721 ft | 440 kts | 5° |
| 2026-04-24 22:31 | 68.82200 | 15.63057 | 34987 ft | 440 kts | 5° |
| 2026-04-24 22:31 | 68.85226 | 15.64412 | 35261 ft | 440 kts | 5° |
| 2026-04-24 22:32 | 68.88276 | 15.65782 | 35516 ft | 440 kts | 6° |
| 2026-04-24 22:32 | 68.91296 | 15.67141 | 35745 ft | 441 kts | 6° |
| 2026-04-24 22:32 | 68.94338 | 15.68514 | 35969 ft | 442 kts | 6° |
| 2026-04-24 22:32 | 68.97348 | 15.69877 | 36220 ft | 441 kts | 6° |
| 2026-04-24 22:33 | 69.00341 | 15.71236 | 36449 ft | 441 kts | 6° |
| 2026-04-24 22:33 | 69.03358 | 15.72611 | 36672 ft | 441 kts | 6° |
| 2026-04-24 22:33 | 69.06396 | 15.73999 | 36902 ft | 440 kts | 6° |
| 2026-04-24 22:33 | 69.09397 | 15.75375 | 37140 ft | 440 kts | 6° |
| 2026-04-24 22:34 | 69.12401 | 15.76755 | 37387 ft | 440 kts | 6° |
| 2026-04-24 22:34 | 69.15436 | 15.78151 | 37581 ft | 441 kts | 6° |
| 2026-04-24 22:34 | 69.18446 | 15.79540 | 37710 ft | 442 kts | 6° |
| 2026-04-24 22:34 | 69.21468 | 15.80938 | 37714 ft | 444 kts | 6° |
| 2026-04-24 22:35 | 69.27523 | 15.83755 | 37712 ft | 442 kts | 6° |
| 2026-04-24 22:35 | 69.33558 | 15.86578 | 37712 ft | 442 kts | 6° |
| 2026-04-24 22:36 | 69.39659 | 15.89447 | 37708 ft | 442 kts | 6° |
| 2026-04-24 22:36 | 69.45684 | 15.92297 | 37707 ft | 440 kts | 6° |
| 2026-04-24 22:37 | 69.51675 | 15.95147 | 37705 ft | 441 kts | 6° |
| 2026-04-24 22:37 | 69.57718 | 15.98036 | 37699 ft | 443 kts | 6° |
| 2026-04-24 22:38 | 69.63767 | 16.00946 | 37696 ft | 443 kts | 7° |
| 2026-04-24 22:38 | 69.69800 | 16.03867 | 37697 ft | 442 kts | 7° |
| 2026-04-24 22:39 | 69.75841 | 16.06807 | 37696 ft | 442 kts | 7° |
| 2026-04-24 22:39 | 69.81866 | 16.09756 | 37698 ft | 441 kts | 7° |
| 2026-04-24 22:40 | 69.87864 | 16.12709 | 37691 ft | 442 kts | 7° |
| 2026-04-24 22:40 | 69.93927 | 16.15710 | 37685 ft | 443 kts | 7° |
| 2026-04-24 22:41 | 69.99967 | 16.18717 | 37678 ft | 443 kts | 7° |
| 2026-04-24 22:41 | 70.06000 | 16.21740 | 37676 ft | 443 kts | 7° |
| 2026-04-24 22:42 | 70.12038 | 16.24784 | 37681 ft | 442 kts | 7° |
| 2026-04-24 22:42 | 70.18076 | 16.27824 | 37686 ft | 442 kts | 6° |
| 2026-04-24 22:43 | 70.24184 | 16.29356 | 37682 ft | 440 kts | 359° |
| 2026-04-24 22:43 | 70.30281 | 16.29506 | 37683 ft | 440 kts | 357° |
| 2026-04-24 22:44 | 70.36412 | 16.29361 | 37680 ft | 440 kts | 357° |
| 2026-04-24 22:44 | 70.42537 | 16.29182 | 37675 ft | 440 kts | 357° |
| 2026-04-24 22:45 | 70.48643 | 16.29018 | 37672 ft | 440 kts | 357° |
| 2026-04-24 22:45 | 70.54745 | 16.28868 | 37673 ft | 439 kts | 357° |
| 2026-04-24 22:46 | 70.60877 | 16.28724 | 37671 ft | 440 kts | 357° |
| 2026-04-24 22:46 | 70.66966 | 16.28584 | 37667 ft | 440 kts | 357° |
| 2026-04-24 22:47 | 70.73050 | 16.28446 | 37671 ft | 441 kts | 357° |
| 2026-04-24 22:47 | 70.79149 | 16.28306 | 37674 ft | 442 kts | 357° |
| 2026-04-24 22:48 | 70.85237 | 16.28166 | 37672 ft | 441 kts | 357° |
| 2026-04-24 22:48 | 70.91336 | 16.28025 | 37667 ft | 440 kts | 357° |
| 2026-04-24 22:49 | 70.97403 | 16.27883 | 37667 ft | 440 kts | 357° |
| 2026-04-24 22:49 | 71.03514 | 16.27739 | 37665 ft | 441 kts | 358° |
| 2026-04-24 22:50 | 71.09628 | 16.27596 | 37668 ft | 441 kts | 358° |
| 2026-04-24 22:50 | 71.15720 | 16.27451 | 37669 ft | 441 kts | 358° |
| 2026-04-24 22:51 | 71.21813 | 16.27306 | 37663 ft | 441 kts | 358° |
| 2026-04-24 22:51 | 71.27906 | 16.27161 | 37656 ft | 440 kts | 358° |
| 2026-04-24 22:52 | 71.33979 | 16.27014 | 37656 ft | 440 kts | 358° |
| 2026-04-24 22:52 | 71.40090 | 16.26865 | 37656 ft | 440 kts | 358° |
| 2026-04-24 22:53 | 71.46191 | 16.26715 | 37656 ft | 440 kts | 358° |
| 2026-04-24 22:53 | 71.52274 | 16.26565 | 37657 ft | 440 kts | 358° |
| 2026-04-24 22:54 | 71.58407 | 16.26412 | 37657 ft | 439 kts | 358° |
| 2026-04-24 22:54 | 71.64477 | 16.26261 | 37657 ft | 440 kts | 358° |
| 2026-04-24 22:55 | 71.70570 | 16.26108 | 37657 ft | 440 kts | 358° |
| 2026-04-24 22:55 | 71.76662 | 16.25953 | 37657 ft | 440 kts | 358° |
| 2026-04-24 22:56 | 71.82747 | 16.25799 | 37654 ft | 439 kts | 358° |
| 2026-04-24 22:56 | 71.88813 | 16.25644 | 37655 ft | 438 kts | 358° |
| 2026-04-24 22:57 | 71.94871 | 16.25487 | 37653 ft | 439 kts | 358° |
| 2026-04-24 22:57 | 72.00960 | 16.25328 | 37650 ft | 440 kts | 358° |
| 2026-04-24 22:58 | 72.07030 | 16.25170 | 37653 ft | 439 kts | 358° |
| 2026-04-24 22:58 | 72.13087 | 16.25012 | 37654 ft | 438 kts | 358° |
| 2026-04-24 22:59 | 72.19161 | 16.24851 | 37656 ft | 438 kts | 358° |
| 2026-04-24 23:00 | 72.28208 | 16.24610 | 37657 ft | 437 kts | 358° |
| 2026-04-24 23:00 | 72.34295 | 16.24445 | 37660 ft | 439 kts | 358° |
| 2026-04-24 23:01 | 72.40376 | 16.24281 | 37660 ft | 439 kts | 358° |
| 2026-04-24 23:01 | 72.46439 | 16.24116 | 37662 ft | 439 kts | 358° |
| 2026-04-24 23:02 | 72.52492 | 16.23950 | 37665 ft | 439 kts | 358° |
| 2026-04-24 23:02 | 72.58585 | 16.23782 | 37667 ft | 438 kts | 358° |
| 2026-04-24 23:03 | 72.64620 | 16.23615 | 37667 ft | 438 kts | 358° |
| 2026-04-24 23:03 | 72.70676 | 16.23445 | 37667 ft | 440 kts | 359° |
| 2026-04-24 23:04 | 72.76776 | 16.23272 | 37667 ft | 440 kts | 359° |
| 2026-04-24 23:04 | 72.82854 | 16.23100 | 37662 ft | 439 kts | 359° |
| 2026-04-24 23:05 | 72.88927 | 16.22926 | 37657 ft | 439 kts | 359° |
| 2026-04-24 23:05 | 72.94979 | 16.22752 | 37657 ft | 438 kts | 359° |
| 2026-04-24 23:06 | 73.01031 | 16.22578 | 37657 ft | 439 kts | 359° |
| 2026-04-24 23:06 | 73.07119 | 16.22400 | 37665 ft | 440 kts | 359° |
| 2026-04-24 23:07 | 73.13227 | 16.22220 | 37666 ft | 440 kts | 359° |
| 2026-04-24 23:07 | 73.19289 | 16.22041 | 37677 ft | 440 kts | 359° |
| 2026-04-24 23:08 | 73.25396 | 16.21860 | 37679 ft | 440 kts | 359° |
| 2026-04-24 23:08 | 73.31441 | 16.21679 | 37682 ft | 440 kts | 359° |
| 2026-04-24 23:09 | 73.37551 | 16.21494 | 37684 ft | 440 kts | 359° |
| 2026-04-24 23:09 | 73.43628 | 16.21309 | 37685 ft | 441 kts | 359° |
| 2026-04-24 23:10 | 73.49721 | 16.21123 | 37690 ft | 441 kts | 359° |
| 2026-04-24 23:10 | 73.55819 | 16.20934 | 37685 ft | 442 kts | 359° |
| 2026-04-24 23:11 | 73.61927 | 16.20745 | 37685 ft | 442 kts | 359° |
| 2026-04-24 23:11 | 73.68034 | 16.20554 | 37690 ft | 442 kts | 359° |
| 2026-04-24 23:12 | 73.74151 | 16.20361 | 37691 ft | 442 kts | 359° |
| 2026-04-24 23:12 | 73.80248 | 16.20167 | 37697 ft | 442 kts | 359° |
| 2026-04-24 23:13 | 73.86375 | 16.19972 | 37709 ft | 442 kts | 359° |
| 2026-04-24 23:13 | 73.92478 | 16.19775 | 37707 ft | 443 kts | 359° |
| 2026-04-24 23:14 | 73.98597 | 16.19576 | 37711 ft | 444 kts | 359° |
| 2026-04-24 23:14 | 74.04767 | 16.19374 | 37712 ft | 443 kts | 359° |
| 2026-04-24 23:15 | 74.10910 | 16.19171 | 37713 ft | 442 kts | 359° |
| 2026-04-24 23:15 | 74.17017 | 16.18969 | 37711 ft | 442 kts | 359° |
| 2026-04-24 23:16 | 74.23138 | 16.18764 | 37706 ft | 443 kts | 359° |
| 2026-04-24 23:16 | 74.29260 | 16.18559 | 37715 ft | 443 kts | 359° |
| 2026-04-24 23:17 | 74.35405 | 16.18351 | 37717 ft | 443 kts | 359° |
| 2026-04-24 23:17 | 74.41519 | 16.18142 | 37719 ft | 442 kts | 359° |
| 2026-04-24 23:18 | 74.47678 | 16.17931 | 37726 ft | 442 kts | 359° |
| 2026-04-24 23:18 | 74.53801 | 16.17718 | 37734 ft | 443 kts | 359° |
| 2026-04-24 23:19 | 74.59939 | 16.17502 | 37734 ft | 444 kts | 359° |
| 2026-04-24 23:19 | 74.66067 | 16.17285 | 37734 ft | 443 kts | 359° |
| 2026-04-24 23:20 | 74.72202 | 16.17067 | 37741 ft | 443 kts | 359° |
| 2026-04-24 23:20 | 74.78323 | 16.16848 | 37744 ft | 442 kts | 359° |
| 2026-04-24 23:21 | 74.84446 | 16.16627 | 37750 ft | 442 kts | 359° |
| 2026-04-24 23:21 | 74.90548 | 16.16405 | 37745 ft | 443 kts | 359° |
| 2026-04-24 23:22 | 74.96680 | 16.16180 | 37757 ft | 443 kts | 359° |
| 2026-04-24 23:22 | 75.02805 | 16.15954 | 37757 ft | 443 kts | 359° |
| 2026-04-24 23:23 | 75.08938 | 16.15725 | 37765 ft | 443 kts | 360° |
| 2026-04-24 23:23 | 75.15084 | 16.15494 | 37765 ft | 443 kts | 360° |
| 2026-04-24 23:24 | 75.21210 | 16.15263 | 37767 ft | 443 kts | 360° |
| 2026-04-24 23:24 | 75.27342 | 16.15029 | 37777 ft | 443 kts | 360° |
| 2026-04-24 23:25 | 75.33498 | 16.14793 | 37777 ft | 443 kts | 359° |
| 2026-04-24 23:25 | 75.39651 | 16.14554 | 37787 ft | 444 kts | 359° |
| 2026-04-24 23:26 | 75.45786 | 16.14314 | 37781 ft | 443 kts | 360° |
| 2026-04-24 23:26 | 75.51884 | 16.14073 | 37786 ft | 442 kts | 360° |
| 2026-04-24 23:27 | 75.58014 | 16.13829 | 37788 ft | 442 kts | 360° |
| 2026-04-24 23:27 | 75.64136 | 16.13584 | 37797 ft | 443 kts | 360° |
| 2026-04-24 23:28 | 75.70277 | 16.13312 | 37803 ft | 443 kts | 359° |
| 2026-04-24 23:28 | 75.76399 | 16.10657 | 37806 ft | 444 kts | 351° |
| 2026-04-24 23:29 | 75.82481 | 16.06067 | 37813 ft | 443 kts | 349° |
| 2026-04-24 23:29 | 75.88541 | 16.01362 | 37807 ft | 442 kts | 350° |
| 2026-04-24 23:30 | 75.94563 | 15.96921 | 37819 ft | 442 kts | 351° |
| 2026-04-24 23:30 | 76.00588 | 15.92631 | 37832 ft | 443 kts | 351° |
| 2026-04-24 23:31 | 76.06661 | 15.88356 | 37828 ft | 444 kts | 351° |
| 2026-04-24 23:31 | 76.12708 | 15.84091 | 37819 ft | 443 kts | 351° |
| 2026-04-24 23:32 | 76.18758 | 15.79797 | 37824 ft | 443 kts | 351° |
| 2026-04-24 23:32 | 76.24802 | 15.75471 | 37832 ft | 442 kts | 351° |
| 2026-04-24 23:33 | 76.30840 | 15.71112 | 37830 ft | 442 kts | 351° |
| 2026-04-24 23:33 | 76.36861 | 15.66728 | 37849 ft | 443 kts | 351° |
| 2026-04-24 23:34 | 76.42866 | 15.62315 | 37498 ft | 436 kts | 351° |
| 2026-04-24 23:34 | 76.45850 | 15.60107 | 37076 ft | 433 kts | 351° |
| 2026-04-24 23:34 | 76.48782 | 15.57928 | 36566 ft | 433 kts | 351° |
| 2026-04-24 23:34 | 76.51704 | 15.55750 | 35982 ft | 434 kts | 351° |
| 2026-04-24 23:35 | 76.54679 | 15.53523 | 35328 ft | 437 kts | 352° |
| 2026-04-24 23:35 | 76.57684 | 15.51263 | 34640 ft | 441 kts | 352° |
| 2026-04-24 23:35 | 76.60704 | 15.48983 | 33934 ft | 444 kts | 352° |
| 2026-04-24 23:35 | 76.63685 | 15.46721 | 33398 ft | 442 kts | 352° |
| 2026-04-24 23:36 | 76.66685 | 15.44431 | 32940 ft | 439 kts | 352° |
| 2026-04-24 23:36 | 76.69692 | 15.42124 | 32500 ft | 438 kts | 352° |
| 2026-04-24 23:36 | 76.72650 | 15.39846 | 32034 ft | 437 kts | 352° |
| 2026-04-24 23:36 | 76.75571 | 15.37586 | 31837 ft | 426 kts | 352° |
| 2026-04-24 23:37 | 76.78446 | 15.35345 | 31619 ft | 417 kts | 352° |
| 2026-04-24 23:37 | 76.81248 | 15.33157 | 31246 ft | 414 kts | 352° |
| 2026-04-24 23:37 | 76.86849 | 15.28768 | 30553 ft | 409 kts | 352° |
| 2026-04-24 23:38 | 76.89609 | 15.26592 | 30182 ft | 405 kts | 352° |
| 2026-04-24 23:38 | 76.92363 | 15.24410 | 29790 ft | 401 kts | 352° |
| 2026-04-24 23:38 | 76.95084 | 15.22246 | 29400 ft | 398 kts | 352° |
| 2026-04-24 23:38 | 76.97768 | 15.20103 | 29003 ft | 395 kts | 352° |
| 2026-04-24 23:39 | 77.00449 | 15.17954 | 28627 ft | 390 kts | 352° |
| 2026-04-24 23:39 | 77.03095 | 15.15824 | 28229 ft | 387 kts | 352° |
| 2026-04-24 23:39 | 77.05757 | 15.13672 | 27817 ft | 384 kts | 352° |
| 2026-04-24 23:39 | 77.08333 | 15.11580 | 27419 ft | 381 kts | 352° |
| 2026-04-24 23:40 | 77.10941 | 15.09453 | 27007 ft | 377 kts | 352° |
| 2026-04-24 23:40 | 77.13499 | 15.07359 | 26595 ft | 374 kts | 352° |
| 2026-04-24 23:40 | 77.16016 | 15.05290 | 26169 ft | 372 kts | 352° |
| 2026-04-24 23:40 | 77.18562 | 15.03190 | 25743 ft | 368 kts | 352° |
| 2026-04-24 23:41 | 77.21008 | 15.01164 | 25318 ft | 365 kts | 352° |
| 2026-04-24 23:41 | 77.23472 | 14.99117 | 24837 ft | 362 kts | 352° |
| 2026-04-24 23:41 | 77.25906 | 14.97089 | 24368 ft | 359 kts | 352° |
| 2026-04-24 23:41 | 77.28341 | 14.95052 | 23876 ft | 356 kts | 352° |
| 2026-04-24 23:42 | 77.30764 | 14.93015 | 23395 ft | 352 kts | 352° |
| 2026-04-24 23:42 | 77.33147 | 14.91001 | 22935 ft | 349 kts | 352° |
| 2026-04-24 23:42 | 77.35497 | 14.89006 | 22449 ft | 346 kts | 352° |
| 2026-04-24 23:42 | 77.37831 | 14.87023 | 21950 ft | 344 kts | 352° |
| 2026-04-24 23:43 | 77.40138 | 14.84442 | 21461 ft | 344 kts | 342° |
| 2026-04-24 23:43 | 77.42233 | 14.79218 | 20975 ft | 346 kts | 326° |
| 2026-04-24 23:43 | 77.44038 | 14.72171 | 20508 ft | 345 kts | 320° |
| 2026-04-24 23:43 | 77.45763 | 14.64510 | 20022 ft | 342 kts | 318° |
| 2026-04-24 23:44 | 77.47421 | 14.56899 | 19607 ft | 340 kts | 318° |
| 2026-04-24 23:44 | 77.49074 | 14.49241 | 19098 ft | 337 kts | 318° |
| 2026-04-24 23:44 | 77.50706 | 14.41646 | 18598 ft | 334 kts | 318° |
| 2026-04-24 23:44 | 77.52333 | 14.34048 | 18108 ft | 331 kts | 317° |
| 2026-04-24 23:45 | 77.53914 | 14.26501 | 17582 ft | 329 kts | 314° |
| 2026-04-24 23:45 | 77.55348 | 14.18224 | 17129 ft | 329 kts | 309° |
| 2026-04-24 23:45 | 77.56658 | 14.09599 | 16656 ft | 326 kts | 307° |
| 2026-04-24 23:45 | 77.57925 | 14.01010 | 16205 ft | 324 kts | 307° |
| 2026-04-24 23:46 | 77.59178 | 13.92459 | 15758 ft | 321 kts | 307° |
| 2026-04-24 23:46 | 77.60435 | 13.83874 | 15307 ft | 319 kts | 307° |
| 2026-04-24 23:46 | 77.61666 | 13.75443 | 14848 ft | 316 kts | 307° |
| 2026-04-24 23:46 | 77.62891 | 13.67028 | 14473 ft | 312 kts | 307° |
| 2026-04-24 23:47 | 77.64086 | 13.58797 | 14173 ft | 305 kts | 307° |
| 2026-04-24 23:47 | 77.65288 | 13.50739 | 13910 ft | 307 kts | 312° |
| 2026-04-24 23:47 | 77.66782 | 13.43730 | 13553 ft | 307 kts | 323° |
| 2026-04-24 23:47 | 77.68424 | 13.37596 | 13184 ft | 301 kts | 326° |
| 2026-04-24 23:48 | 77.70082 | 13.31676 | 12825 ft | 296 kts | 326° |
| 2026-04-24 23:48 | 77.71711 | 13.25878 | 12469 ft | 293 kts | 326° |
| 2026-04-24 23:48 | 77.73418 | 13.20577 | 12107 ft | 298 kts | 334° |
| 2026-04-24 23:48 | 77.75255 | 13.16241 | 11719 ft | 294 kts | 338° |
| 2026-04-24 23:49 | 77.77078 | 13.12284 | 11326 ft | 290 kts | 338° |
| 2026-04-24 23:49 | 77.78897 | 13.08394 | 10940 ft | 287 kts | 339° |
| 2026-04-24 23:49 | 77.80708 | 13.04532 | 10551 ft | 284 kts | 339° |
| 2026-04-24 23:49 | 77.82488 | 13.00736 | 10227 ft | 279 kts | 339° |
| 2026-04-24 23:50 | 77.84244 | 12.97533 | 10052 ft | 267 kts | 349° |
| 2026-04-24 23:50 | 77.86030 | 12.97087 | 9907 ft | 252 kts | 11° |
| 2026-04-24 23:50 | 77.87657 | 12.99578 | 9632 ft | 246 kts | 26° |
| 2026-04-24 23:50 | 77.89190 | 13.03242 | 9376 ft | 250 kts | 28° |
| 2026-04-24 23:51 | 77.90721 | 13.07087 | 9098 ft | 251 kts | 28° |
| 2026-04-24 23:51 | 77.92260 | 13.10975 | 8846 ft | 246 kts | 28° |
| 2026-04-24 23:51 | 77.93748 | 13.14724 | 8573 ft | 242 kts | 27° |
| 2026-04-24 23:51 | 77.95271 | 13.17898 | 8308 ft | 241 kts | 22° |
| 2026-04-24 23:52 | 77.96860 | 13.20692 | 8015 ft | 246 kts | 21° |
| 2026-04-24 23:52 | 77.98466 | 13.23450 | 7727 ft | 243 kts | 20° |
| 2026-04-24 23:52 | 78.00025 | 13.26151 | 7460 ft | 240 kts | 20° |
| 2026-04-24 23:52 | 78.01572 | 13.28918 | 7186 ft | 236 kts | 23° |
| 2026-04-24 23:53 | 78.03054 | 13.32153 | 6902 ft | 236 kts | 26° |
| 2026-04-24 23:53 | 78.04527 | 13.35632 | 6640 ft | 240 kts | 27° |
| 2026-04-24 23:53 | 78.06017 | 13.39182 | 6371 ft | 237 kts | 27° |
| 2026-04-24 23:53 | 78.07480 | 13.42658 | 6141 ft | 231 kts | 27° |
| 2026-04-24 23:54 | 78.08892 | 13.46048 | 6031 ft | 230 kts | 28° |
| 2026-04-24 23:54 | 78.10294 | 13.50003 | 5956 ft | 235 kts | 32° |
| 2026-04-24 23:54 | 78.11655 | 13.54169 | 5852 ft | 235 kts | 32° |
| 2026-04-24 23:54 | 78.13008 | 13.58375 | 5645 ft | 231 kts | 33° |
| 2026-04-24 23:55 | 78.14245 | 13.62228 | 5449 ft | 226 kts | 33° |
| 2026-04-24 23:55 | 78.15566 | 13.66346 | 5220 ft | 223 kts | 33° |
| 2026-04-24 23:55 | 78.16845 | 13.70344 | 5025 ft | 218 kts | 33° |
| 2026-04-24 23:55 | 78.18101 | 13.74279 | 4868 ft | 212 kts | 33° |
| 2026-04-24 23:56 | 78.19303 | 13.78388 | 4740 ft | 205 kts | 38° |
| 2026-04-24 23:56 | 78.20400 | 13.82686 | 4655 ft | 204 kts | 39° |
| 2026-04-24 23:56 | 78.21415 | 13.86770 | 4539 ft | 196 kts | 39° |
| 2026-04-24 23:56 | 78.22440 | 13.90919 | 4427 ft | 188 kts | 39° |
| 2026-04-24 23:57 | 78.23370 | 13.95024 | 4308 ft | 179 kts | 44° |
| 2026-04-24 23:57 | 78.24219 | 13.99201 | 4185 ft | 172 kts | 44° |
| 2026-04-24 23:57 | 78.25023 | 14.03221 | 4028 ft | 167 kts | 44° |
| 2026-04-24 23:57 | 78.25824 | 14.07253 | 3853 ft | 163 kts | 44° |
| 2026-04-24 23:58 | 78.26588 | 14.11174 | 3674 ft | 158 kts | 45° |
| 2026-04-24 23:58 | 78.27312 | 14.14981 | 3750 ft | 148 kts | 45° |
| 2026-04-24 23:58 | 78.27998 | 14.18605 | 3746 ft | 140 kts | 45° |
| 2026-04-24 23:58 | 78.28596 | 14.22370 | 3748 ft | 142 kts | 56° |
| 2026-04-24 23:59 | 78.29114 | 14.26474 | 3743 ft | 143 kts | 55° |
| 2026-04-24 23:59 | 78.29653 | 14.30618 | 3753 ft | 143 kts | 54° |
| 2026-04-24 23:59 | 78.30054 | 14.35123 | 3740 ft | 148 kts | 77° |
| 2026-04-24 23:59 | 78.30069 | 14.40230 | 3747 ft | 152 kts | 88° |
| 2026-04-25 00:00 | 78.29955 | 14.45429 | 3734 ft | 152 kts | 94° |
| 2026-04-25 00:00 | 78.29750 | 14.50501 | 3728 ft | 153 kts | 97° |
| 2026-04-25 00:00 | 78.29505 | 14.55623 | 3763 ft | 154 kts | 98° |
| 2026-04-25 00:00 | 78.29245 | 14.60750 | 3749 ft | 154 kts | 98° |
| 2026-04-25 00:01 | 78.28978 | 14.65895 | 3587 ft | 155 kts | 99° |
| 2026-04-25 00:01 | 78.28713 | 14.70944 | 3290 ft | 153 kts | 99° |
| 2026-04-25 00:01 | 78.28449 | 14.75988 | 3065 ft | 152 kts | 99° |
| 2026-04-25 00:01 | 78.28184 | 14.81003 | 2856 ft | 152 kts | 99° |
| 2026-04-25 00:02 | 78.27940 | 14.85567 | 2646 ft | 152 kts | 99° |
| 2026-04-25 00:02 | 78.27678 | 14.90475 | 2403 ft | 147 kts | 99° |
| 2026-04-25 00:02 | 78.27420 | 14.95297 | 2189 ft | 142 kts | 99° |
| 2026-04-25 00:02 | 78.27168 | 15.00001 | 1990 ft | 140 kts | 99° |
| 2026-04-25 00:03 | 78.26926 | 15.04503 | 1758 ft | 133 kts | 99° |
| 2026-04-25 00:03 | 78.26698 | 15.08703 | 1586 ft | 125 kts | 98° |
| 2026-04-25 00:03 | 78.26476 | 15.12805 | 1407 ft | 123 kts | 100° |
| 2026-04-25 00:03 | 78.26257 | 15.16795 | 1231 ft | 122 kts | 98° |
| 2026-04-25 00:04 | 78.26038 | 15.20806 | 1054 ft | 121 kts | 98° |
| 2026-04-25 00:04 | 78.25822 | 15.24801 | 879 ft | 120 kts | 98° |
| 2026-04-25 00:04 | 78.25590 | 15.28757 | 686 ft | 120 kts | 100° |
| 2026-04-25 00:04 | 78.25370 | 15.32643 | 508 ft | 117 kts | 97° |
| 2026-04-25 00:05 | 78.25166 | 15.36531 | 328 ft | 116 kts | 97° |
| 2026-04-25 00:05 | 78.24954 | 15.40464 | 174 ft | 117 kts | 98° |
| 2026-04-25 00:05 | 78.24747 | 15.44214 | 102 ft | 109 kts | 99° |
| 2026-04-25 00:05 | 78.24573 | 15.47370 | 103 ft | 78 kts | 107° |
| 2026-04-25 00:06 | 78.24465 | 15.49211 | 97 ft | 26 kts | 102° |
| 2026-04-25 00:06 | 78.24485 | 15.49882 | 93 ft | 14 kts | 22° |
| 2026-04-25 00:06 | 78.24560 | 15.49840 | 93 ft | 12 kts | 290° |
| 2026-04-25 00:06 | 78.24571 | 15.49493 | 96 ft | 9 kts | 279° |
| 2026-04-25 00:07 | 78.24594 | 15.49230 | 97 ft | 7 kts | 301° |
| 2026-04-25 00:07 | 78.24618 | 15.49006 | 97 ft | 7 kts | 280° |
| 2026-04-25 00:07 | 78.24642 | 15.48870 | 97 ft | 6 kts | 7° |
| 2026-04-25 00:07 | 78.24651 | 15.48880 | 97 ft | 0 kts | 15° |